sensor_id;sensor_type;location;lat;lon;timestamp;pressure;altitude;pressure_sealevel;temperature;humidity
57900;BME280;60605;53.716;19.940;2023-03-13T00:01:40;99678.89;;;-1.10;92.49
57900;BME280;60605;53.716;19.940;2023-03-13T00:06:43;99683.36;;;-1.06;92.24
57900;BME280;60605;53.716;19.940;2023-03-13T00:11:45;99674.28;;;-1.04;92.06
57900;BME280;60605;53.716;19.940;2023-03-13T00:16:47;99673.33;;;-1.03;92.05
57900;BME280;60605;53.716;19.940;2023-03-13T00:21:49;99665.69;;;-1.01;92.03
57900;BME280;60605;53.716;19.940;2023-03-13T00:26:51;99657.78;;;-1.01;92.20
57900;BME280;60605;53.716;19.940;2023-03-13T00:31:53;99652.10;;;-1.00;92.38
57900;BME280;60605;53.716;19.940;2023-03-13T00:36:55;99641.52;;;-0.99;92.36
57900;BME280;60605;53.716;19.940;2023-03-13T00:41:57;99635.17;;;-0.98;92.40
57900;BME280;60605;53.716;19.940;2023-03-13T00:46:59;99627.37;;;-0.96;92.62
57900;BME280;60605;53.716;19.940;2023-03-13T00:52:01;99616.14;;;-0.94;92.68
57900;BME280;60605;53.716;19.940;2023-03-13T00:57:03;99612.17;;;-0.92;92.67
57900;BME280;60605;53.716;19.940;2023-03-13T01:02:05;99606.86;;;-0.91;92.79
57900;BME280;60605;53.716;19.940;2023-03-13T01:07:07;99604.81;;;-0.92;93.02
57900;BME280;60605;53.716;19.940;2023-03-13T01:12:09;99590.40;;;-0.94;93.17
57900;BME280;60605;53.716;19.940;2023-03-13T01:17:11;99572.67;;;-0.96;93.42
57900;BME280;60605;53.716;19.940;2023-03-13T01:22:13;99551.57;;;-0.98;93.96
57900;BME280;60605;53.716;19.940;2023-03-13T01:27:15;99539.60;;;-0.99;94.12
57900;BME280;60605;53.716;19.940;2023-03-13T01:32:17;99530.67;;;-1.02;94.36
57900;BME280;60605;53.716;19.940;2023-03-13T01:37:18;99518.73;;;-1.07;94.39
57900;BME280;60605;53.716;19.940;2023-03-13T01:42:20;99526.52;;;-1.14;94.27
57900;BME280;60605;53.716;19.940;2023-03-13T01:47:22;99540.42;;;-1.26;93.92
57900;BME280;60605;53.716;19.940;2023-03-13T01:52:25;99551.42;;;-1.39;94.03
57900;BME280;60605;53.716;19.940;2023-03-13T01:57:32;99548.09;;;-1.52;94.57
57900;BME280;60605;53.716;19.940;2023-03-13T02:02:36;99540.37;;;-1.60;95.71
57900;BME280;60605;53.716;19.940;2023-03-13T02:07:51;99536.35;;;-1.63;96.41
57900;BME280;60605;53.716;19.940;2023-03-13T02:12:58;99527.55;;;-1.60;97.34
57900;BME280;60605;53.716;19.940;2023-03-13T02:18:01;99510.97;;;-1.52;98.00
57900;BME280;60605;53.716;19.940;2023-03-13T02:23:21;99498.83;;;-1.43;98.19
57900;BME280;60605;53.716;19.940;2023-03-13T02:28:36;99481.14;;;-1.35;98.26
57900;BME280;60605;53.716;19.940;2023-03-13T02:33:41;99469.73;;;-1.24;98.87
57900;BME280;60605;53.716;19.940;2023-03-13T02:39:02;99464.04;;;-1.04;99.68
57900;BME280;60605;53.716;19.940;2023-03-13T02:44:05;99462.47;;;-0.81;99.91
57900;BME280;60605;53.716;19.940;2023-03-13T02:49:19;99457.08;;;-0.55;100.00
57900;BME280;60605;53.716;19.940;2023-03-13T02:54:32;99454.77;;;-0.32;99.51
57900;BME280;60605;53.716;19.940;2023-03-13T02:59:34;99460.86;;;-0.17;98.83
57900;BME280;60605;53.716;19.940;2023-03-13T03:04:36;99467.59;;;-0.05;98.46
57900;BME280;60605;53.716;19.940;2023-03-13T03:09:38;99476.02;;;0.08;98.30
57900;BME280;60605;53.716;19.940;2023-03-13T03:14:40;99482.61;;;0.19;97.95
57900;BME280;60605;53.716;19.940;2023-03-13T03:19:42;99483.83;;;0.29;97.75
57900;BME280;60605;53.716;19.940;2023-03-13T03:24:44;99484.67;;;0.37;97.30
57900;BME280;60605;53.716;19.940;2023-03-13T03:29:45;99486.55;;;0.43;96.98
57900;BME280;60605;53.716;19.940;2023-03-13T03:34:47;99483.16;;;0.48;96.85
57900;BME280;60605;53.716;19.940;2023-03-13T03:39:49;99482.61;;;0.53;96.72
57900;BME280;60605;53.716;19.940;2023-03-13T03:44:51;99480.77;;;0.57;96.50
57900;BME280;60605;53.716;19.940;2023-03-13T03:49:52;99471.32;;;0.59;96.55
57900;BME280;60605;53.716;19.940;2023-03-13T03:54:54;99457.41;;;0.59;96.68
57900;BME280;60605;53.716;19.940;2023-03-13T03:59:56;99457.87;;;0.60;96.73
57900;BME280;60605;53.716;19.940;2023-03-13T04:04:58;99459.97;;;0.63;96.97
57900;BME280;60605;53.716;19.940;2023-03-13T04:09:59;99458.14;;;0.66;96.95
57900;BME280;60605;53.716;19.940;2023-03-13T04:15:02;99452.44;;;0.69;97.02
57900;BME280;60605;53.716;19.940;2023-03-13T04:20:05;99437.86;;;0.74;97.21
57900;BME280;60605;53.716;19.940;2023-03-13T04:25:09;99427.50;;;0.79;97.33
57900;BME280;60605;53.716;19.940;2023-03-13T04:30:11;99428.91;;;0.83;97.87
57900;BME280;60605;53.716;19.940;2023-03-13T04:35:13;99422.48;;;0.89;98.68
57900;BME280;60605;53.716;19.940;2023-03-13T04:40:15;99420.93;;;0.96;98.63
57900;BME280;60605;53.716;19.940;2023-03-13T04:45:17;99403.77;;;1.04;99.63
57900;BME280;60605;53.716;19.940;2023-03-13T04:50:19;99395.06;;;1.22;100.00
57900;BME280;60605;53.716;19.940;2023-03-13T04:55:21;99391.01;;;1.40;100.00
57900;BME280;60605;53.716;19.940;2023-03-13T05:00:24;99397.13;;;1.54;100.00
57900;BME280;60605;53.716;19.940;2023-03-13T05:05:25;99388.56;;;1.65;100.00
57900;BME280;60605;53.716;19.940;2023-03-13T05:10:28;99378.27;;;1.72;100.00
57900;BME280;60605;53.716;19.940;2023-03-13T05:15:30;99379.02;;;1.79;100.00
57900;BME280;60605;53.716;19.940;2023-03-13T05:20:32;99368.34;;;1.85;100.00
57900;BME280;60605;53.716;19.940;2023-03-13T05:25:34;99369.34;;;1.90;100.00
57900;BME280;60605;53.716;19.940;2023-03-13T05:30:36;99361.92;;;1.93;100.00
57900;BME280;60605;53.716;19.940;2023-03-13T05:35:37;99352.70;;;1.95;100.00
57900;BME280;60605;53.716;19.940;2023-03-13T05:40:40;99342.00;;;1.99;100.00
57900;BME280;60605;53.716;19.940;2023-03-13T05:45:42;99330.77;;;2.06;100.00
57900;BME280;60605;53.716;19.940;2023-03-13T05:50:43;99331.88;;;2.11;100.00
57900;BME280;60605;53.716;19.940;2023-03-13T05:55:46;99330.27;;;2.16;100.00
57900;BME280;60605;53.716;19.940;2023-03-13T06:00:47;99329.39;;;2.20;100.00
57900;BME280;60605;53.716;19.940;2023-03-13T06:05:57;99318.40;;;2.25;100.00
57900;BME280;60605;53.716;19.940;2023-03-13T06:11:00;99310.81;;;2.29;100.00
57900;BME280;60605;53.716;19.940;2023-03-13T06:16:03;99309.10;;;2.35;100.00
57900;BME280;60605;53.716;19.940;2023-03-13T06:21:05;99310.89;;;2.44;100.00
57900;BME280;60605;53.716;19.940;2023-03-13T06:26:07;99304.19;;;2.48;100.00
57900;BME280;60605;53.716;19.940;2023-03-13T06:31:10;99293.71;;;2.53;100.00
57900;BME280;60605;53.716;19.940;2023-03-13T06:36:12;99279.40;;;2.60;100.00
57900;BME280;60605;53.716;19.940;2023-03-13T06:41:14;99279.91;;;2.66;100.00
57900;BME280;60605;53.716;19.940;2023-03-13T06:46:19;99288.95;;;2.70;100.00
57900;BME280;60605;53.716;19.940;2023-03-13T06:51:22;99289.20;;;2.73;100.00
57900;BME280;60605;53.716;19.940;2023-03-13T06:56:25;99286.09;;;2.85;100.00
57900;BME280;60605;53.716;19.940;2023-03-13T07:01:28;99272.73;;;3.01;100.00
57900;BME280;60605;53.716;19.940;2023-03-13T07:06:31;99266.40;;;3.10;100.00
57900;BME280;60605;53.716;19.940;2023-03-13T07:11:34;99262.39;;;3.14;100.00
57900;BME280;60605;53.716;19.940;2023-03-13T07:16:36;99252.75;;;3.15;100.00
57900;BME280;60605;53.716;19.940;2023-03-13T07:21:38;99251.02;;;3.19;100.00
57900;BME280;60605;53.716;19.940;2023-03-13T07:26:40;99245.81;;;3.30;100.00
57900;BME280;60605;53.716;19.940;2023-03-13T07:31:55;99241.93;;;3.38;100.00
57900;BME280;60605;53.716;19.940;2023-03-13T07:36:57;99237.23;;;3.46;100.00
57900;BME280;60605;53.716;19.940;2023-03-13T07:41:59;99230.20;;;3.55;100.00
57900;BME280;60605;53.716;19.940;2023-03-13T07:47:01;99230.86;;;3.64;100.00
57900;BME280;60605;53.716;19.940;2023-03-13T07:52:03;99224.92;;;3.71;100.00
57900;BME280;60605;53.716;19.940;2023-03-13T07:57:05;99219.65;;;3.81;100.00
57900;BME280;60605;53.716;19.940;2023-03-13T08:02:11;99215.61;;;3.90;100.00
57900;BME280;60605;53.716;19.940;2023-03-13T08:07:14;99214.09;;;3.99;100.00
57900;BME280;60605;53.716;19.940;2023-03-13T08:12:16;99208.90;;;4.04;100.00
57900;BME280;60605;53.716;19.940;2023-03-13T08:17:18;99201.41;;;4.07;100.00
57900;BME280;60605;53.716;19.940;2023-03-13T08:22:20;99196.47;;;4.10;100.00
57900;BME280;60605;53.716;19.940;2023-03-13T08:27:22;99188.43;;;4.13;100.00
57900;BME280;60605;53.716;19.940;2023-03-13T08:32:24;99179.77;;;4.17;100.00
57900;BME280;60605;53.716;19.940;2023-03-13T08:37:25;99176.52;;;4.23;100.00
57900;BME280;60605;53.716;19.940;2023-03-13T08:42:28;99172.23;;;4.32;100.00
57900;BME280;60605;53.716;19.940;2023-03-13T08:47:29;99161.53;;;4.42;100.00
57900;BME280;60605;53.716;19.940;2023-03-13T08:52:31;99151.40;;;4.50;100.00
57900;BME280;60605;53.716;19.940;2023-03-13T08:57:33;99139.13;;;4.55;100.00
57900;BME280;60605;53.716;19.940;2023-03-13T09:02:35;99137.13;;;4.63;100.00
57900;BME280;60605;53.716;19.940;2023-03-13T09:07:37;99135.22;;;4.68;100.00
57900;BME280;60605;53.716;19.940;2023-03-13T09:12:39;99134.07;;;4.68;100.00
57900;BME280;60605;53.716;19.940;2023-03-13T09:17:42;99127.96;;;4.66;100.00
57900;BME280;60605;53.716;19.940;2023-03-13T09:22:45;99124.42;;;4.68;100.00
57900;BME280;60605;53.716;19.940;2023-03-13T09:27:46;99120.15;;;4.74;100.00
57900;BME280;60605;53.716;19.940;2023-03-13T09:32:48;99109.09;;;4.88;100.00
57900;BME280;60605;53.716;19.940;2023-03-13T09:37:50;99096.80;;;5.12;100.00
57900;BME280;60605;53.716;19.940;2023-03-13T09:42:58;99086.75;;;5.41;100.00
57900;BME280;60605;53.716;19.940;2023-03-13T09:48:07;99087.77;;;5.72;100.00
57900;BME280;60605;53.716;19.940;2023-03-13T09:53:16;99078.25;;;6.03;100.00
57900;BME280;60605;53.716;19.940;2023-03-13T09:58:26;99064.35;;;6.30;100.00
57900;BME280;60605;53.716;19.940;2023-03-13T10:08:35;99046.70;;;6.98;100.00
57900;BME280;60605;53.716;19.940;2023-03-13T10:18:52;99035.02;;;7.71;100.00
57900;BME280;60605;53.716;19.940;2023-03-13T10:29:26;99021.54;;;7.86;98.81
57900;BME280;60605;53.716;19.940;2023-03-13T10:34:45;99010.95;;;7.89;98.73
57900;BME280;60605;53.716;19.940;2023-03-13T10:39:47;99000.42;;;8.04;99.17
57900;BME280;60605;53.716;19.940;2023-03-13T10:44:49;98985.01;;;8.29;98.71
57900;BME280;60605;53.716;19.940;2023-03-13T10:49:56;98974.13;;;8.39;97.81
57900;BME280;60605;53.716;19.940;2023-03-13T10:55:05;98963.83;;;8.48;97.98
57900;BME280;60605;53.716;19.940;2023-03-13T11:00:28;98949.69;;;8.73;97.70
57900;BME280;60605;53.716;19.940;2023-03-13T11:05:41;98940.16;;;9.02;96.56
57900;BME280;60605;53.716;19.940;2023-03-13T11:10:51;98931.04;;;9.28;95.84
57900;BME280;60605;53.716;19.940;2023-03-13T11:16:05;98920.54;;;9.43;94.92
57900;BME280;60605;53.716;19.940;2023-03-13T11:21:40;98913.14;;;9.44;93.97
57900;BME280;60605;53.716;19.940;2023-03-13T11:32:59;98891.08;;;9.24;94.33
57900;BME280;60605;53.716;19.940;2023-03-13T11:38:17;98882.98;;;9.25;95.13
57900;BME280;60605;53.716;19.940;2023-03-13T11:43:31;98873.65;;;9.31;95.56
57900;BME280;60605;53.716;19.940;2023-03-13T11:49:06;98861.77;;;9.25;95.77
57900;BME280;60605;53.716;19.940;2023-03-13T12:04:44;98826.46;;;8.61;99.07
57900;BME280;60605;53.716;19.940;2023-03-13T12:10:31;98809.15;;;8.48;99.96
57900;BME280;60605;53.716;19.940;2023-03-13T12:15:23;98797.30;;;8.31;100.00
57900;BME280;60605;53.716;19.940;2023-03-13T12:25:56;98779.42;;;8.02;100.00
57900;BME280;60605;53.716;19.940;2023-03-13T12:31:21;98775.70;;;7.91;100.00
57900;BME280;60605;53.716;19.940;2023-03-13T12:36:37;98761.87;;;7.80;100.00
57900;BME280;60605;53.716;19.940;2023-03-13T12:52:35;98722.00;;;7.76;100.00
57900;BME280;60605;53.716;19.940;2023-03-13T13:08:23;98681.08;;;7.70;100.00
57900;BME280;60605;53.716;19.940;2023-03-13T13:13:29;98670.25;;;7.70;100.00
57900;BME280;60605;53.716;19.940;2023-03-13T13:18:34;98662.00;;;7.68;100.00
57900;BME280;60605;53.716;19.940;2023-03-13T13:23:38;98634.72;;;7.65;100.00
57900;BME280;60605;53.716;19.940;2023-03-13T13:28:42;98623.54;;;7.62;100.00
57900;BME280;60605;53.716;19.940;2023-03-13T13:33:44;98629.55;;;7.55;100.00
57900;BME280;60605;53.716;19.940;2023-03-13T13:38:46;98603.84;;;7.44;100.00
57900;BME280;60605;53.716;19.940;2023-03-13T13:44:22;98582.19;;;7.45;100.00
57900;BME280;60605;53.716;19.940;2023-03-13T13:49:31;98589.77;;;7.52;100.00
57900;BME280;60605;53.716;19.940;2023-03-13T13:59:49;98571.73;;;7.54;100.00
57900;BME280;60605;53.716;19.940;2023-03-13T14:04:58;98571.16;;;7.56;100.00
57900;BME280;60605;53.716;19.940;2023-03-13T14:15:13;98550.05;;;7.66;100.00
57900;BME280;60605;53.716;19.940;2023-03-13T14:20:18;98535.91;;;7.74;100.00
57900;BME280;60605;53.716;19.940;2023-03-13T14:25:23;98534.34;;;7.79;100.00
57900;BME280;60605;53.716;19.940;2023-03-13T14:30:26;98527.34;;;7.83;100.00
57900;BME280;60605;53.716;19.940;2023-03-13T14:35:29;98518.33;;;7.84;100.00
57900;BME280;60605;53.716;19.940;2023-03-13T14:40:36;98512.95;;;7.84;100.00
57900;BME280;60605;53.716;19.940;2023-03-13T14:45:40;98506.52;;;7.84;100.00
57900;BME280;60605;53.716;19.940;2023-03-13T14:50:42;98500.46;;;7.80;100.00
57900;BME280;60605;53.716;19.940;2023-03-13T14:55:46;98495.75;;;7.76;100.00
57900;BME280;60605;53.716;19.940;2023-03-13T15:00:48;98495.90;;;7.78;100.00
57900;BME280;60605;53.716;19.940;2023-03-13T15:11:28;98484.14;;;7.80;100.00
57900;BME280;60605;53.716;19.940;2023-03-13T15:16:31;98477.97;;;7.79;100.00
57900;BME280;60605;53.716;19.940;2023-03-13T15:21:34;98477.64;;;7.79;100.00
57900;BME280;60605;53.716;19.940;2023-03-13T15:26:36;98472.90;;;7.80;100.00
57900;BME280;60605;53.716;19.940;2023-03-13T15:31:39;98470.00;;;7.85;100.00
57900;BME280;60605;53.716;19.940;2023-03-13T15:36:41;98467.39;;;7.89;100.00
57900;BME280;60605;53.716;19.940;2023-03-13T15:41:43;98463.00;;;7.93;100.00
57900;BME280;60605;53.716;19.940;2023-03-13T15:46:45;98458.33;;;7.98;100.00
57900;BME280;60605;53.716;19.940;2023-03-13T15:51:49;98461.95;;;8.01;100.00
57900;BME280;60605;53.716;19.940;2023-03-13T15:56:51;98460.39;;;8.01;100.00
57900;BME280;60605;53.716;19.940;2023-03-13T16:01:53;98459.95;;;8.02;100.00
57900;BME280;60605;53.716;19.940;2023-03-13T16:06:55;98459.71;;;8.02;100.00
57900;BME280;60605;53.716;19.940;2023-03-13T16:11:58;98460.96;;;8.01;100.00
57900;BME280;60605;53.716;19.940;2023-03-13T16:17:02;98462.59;;;7.99;100.00
57900;BME280;60605;53.716;19.940;2023-03-13T16:22:05;98464.36;;;8.01;100.00
57900;BME280;60605;53.716;19.940;2023-03-13T16:27:16;98466.86;;;8.01;100.00
57900;BME280;60605;53.716;19.940;2023-03-13T16:32:19;98478.45;;;8.02;100.00
57900;BME280;60605;53.716;19.940;2023-03-13T16:37:25;98487.33;;;8.04;100.00
57900;BME280;60605;53.716;19.940;2023-03-13T16:42:27;98489.47;;;8.03;100.00
57900;BME280;60605;53.716;19.940;2023-03-13T16:47:30;98491.25;;;8.06;100.00
57900;BME280;60605;53.716;19.940;2023-03-13T16:52:32;98495.86;;;8.08;100.00
57900;BME280;60605;53.716;19.940;2023-03-13T16:57:35;98503.05;;;8.09;100.00
57900;BME280;60605;53.716;19.940;2023-03-13T17:02:37;98501.45;;;8.09;100.00
57900;BME280;60605;53.716;19.940;2023-03-13T17:07:43;98505.05;;;8.10;100.00
57900;BME280;60605;53.716;19.940;2023-03-13T17:12:45;98508.73;;;8.12;100.00
57900;BME280;60605;53.716;19.940;2023-03-13T17:17:48;98512.83;;;8.16;100.00
57900;BME280;60605;53.716;19.940;2023-03-13T17:22:55;98509.49;;;8.22;100.00
57900;BME280;60605;53.716;19.940;2023-03-13T17:27:58;98507.95;;;8.28;100.00
57900;BME280;60605;53.716;19.940;2023-03-13T17:33:00;98502.59;;;8.34;100.00
57900;BME280;60605;53.716;19.940;2023-03-13T17:38:02;98504.33;;;8.40;100.00
57900;BME280;60605;53.716;19.940;2023-03-13T17:43:04;98509.67;;;8.43;100.00
57900;BME280;60605;53.716;19.940;2023-03-13T17:48:11;98515.00;;;8.47;100.00
57900;BME280;60605;53.716;19.940;2023-03-13T17:53:13;98519.79;;;8.52;100.00
57900;BME280;60605;53.716;19.940;2023-03-13T17:58:16;98517.60;;;8.57;100.00
57900;BME280;60605;53.716;19.940;2023-03-13T18:03:18;98518.19;;;8.61;100.00
57900;BME280;60605;53.716;19.940;2023-03-13T18:08:20;98504.75;;;8.63;100.00
57900;BME280;60605;53.716;19.940;2023-03-13T18:13:23;98510.05;;;8.63;100.00
57900;BME280;60605;53.716;19.940;2023-03-13T18:18:25;98517.83;;;8.66;100.00
57900;BME280;60605;53.716;19.940;2023-03-13T18:23:28;98521.96;;;8.70;100.00
57900;BME280;60605;53.716;19.940;2023-03-13T18:28:30;98522.92;;;8.71;100.00
57900;BME280;60605;53.716;19.940;2023-03-13T18:33:32;98520.64;;;8.75;100.00
57900;BME280;60605;53.716;19.940;2023-03-13T18:38:35;98515.17;;;8.78;100.00
57900;BME280;60605;53.716;19.940;2023-03-13T18:43:37;98514.08;;;8.78;100.00
57900;BME280;60605;53.716;19.940;2023-03-13T18:48:40;98508.93;;;8.75;100.00
57900;BME280;60605;53.716;19.940;2023-03-13T18:53:43;98505.98;;;8.70;100.00
57900;BME280;60605;53.716;19.940;2023-03-13T18:58:47;98507.45;;;8.61;100.00
57900;BME280;60605;53.716;19.940;2023-03-13T19:03:52;98505.68;;;8.48;100.00
57900;BME280;60605;53.716;19.940;2023-03-13T19:08:57;98500.64;;;8.35;100.00
57900;BME280;60605;53.716;19.940;2023-03-13T19:14:00;98493.81;;;8.27;100.00
57900;BME280;60605;53.716;19.940;2023-03-13T19:19:13;98485.45;;;8.16;100.00
57900;BME280;60605;53.716;19.940;2023-03-13T19:24:15;98477.65;;;8.09;100.00
57900;BME280;60605;53.716;19.940;2023-03-13T19:29:21;98472.59;;;8.00;100.00
57900;BME280;60605;53.716;19.940;2023-03-13T19:34:23;98472.61;;;7.94;100.00
57900;BME280;60605;53.716;19.940;2023-03-13T19:39:25;98474.09;;;7.89;100.00
57900;BME280;60605;53.716;19.940;2023-03-13T19:44:28;98475.77;;;7.84;100.00
57900;BME280;60605;53.716;19.940;2023-03-13T19:49:31;98472.55;;;7.81;100.00
57900;BME280;60605;53.716;19.940;2023-03-13T19:54:35;98468.05;;;7.79;100.00
57900;BME280;60605;53.716;19.940;2023-03-13T19:59:37;98473.28;;;7.78;100.00
57900;BME280;60605;53.716;19.940;2023-03-13T20:04:41;98483.06;;;7.77;100.00
57900;BME280;60605;53.716;19.940;2023-03-13T20:09:46;98489.27;;;7.75;100.00
57900;BME280;60605;53.716;19.940;2023-03-13T20:14:48;98485.89;;;7.77;100.00
57900;BME280;60605;53.716;19.940;2023-03-13T20:19:50;98489.38;;;7.82;100.00
57900;BME280;60605;53.716;19.940;2023-03-13T20:24:52;98480.67;;;7.91;100.00
57900;BME280;60605;53.716;19.940;2023-03-13T20:29:56;98476.82;;;7.98;100.00
57900;BME280;60605;53.716;19.940;2023-03-13T20:34:58;98477.61;;;7.99;100.00
57900;BME280;60605;53.716;19.940;2023-03-13T20:40:00;98476.29;;;7.98;100.00
57900;BME280;60605;53.716;19.940;2023-03-13T20:45:03;98473.42;;;7.98;100.00
57900;BME280;60605;53.716;19.940;2023-03-13T20:50:10;98468.93;;;7.97;100.00
57900;BME280;60605;53.716;19.940;2023-03-13T20:55:15;98475.52;;;7.94;100.00
57900;BME280;60605;53.716;19.940;2023-03-13T21:00:19;98466.58;;;7.91;100.00
57900;BME280;60605;53.716;19.940;2023-03-13T21:05:23;98459.70;;;7.88;100.00
57900;BME280;60605;53.716;19.940;2023-03-13T21:10:24;98443.28;;;7.84;100.00
57900;BME280;60605;53.716;19.940;2023-03-13T21:15:26;98436.91;;;7.81;100.00
57900;BME280;60605;53.716;19.940;2023-03-13T21:20:29;98426.99;;;7.79;100.00
57900;BME280;60605;53.716;19.940;2023-03-13T21:25:31;98428.34;;;7.78;100.00
57900;BME280;60605;53.716;19.940;2023-03-13T21:30:33;98430.73;;;7.77;100.00
57900;BME280;60605;53.716;19.940;2023-03-13T21:35:35;98422.06;;;7.78;100.00
57900;BME280;60605;53.716;19.940;2023-03-13T21:40:39;98401.79;;;7.83;100.00
57900;BME280;60605;53.716;19.940;2023-03-13T21:45:41;98383.85;;;7.87;100.00
57900;BME280;60605;53.716;19.940;2023-03-13T21:50:43;98389.65;;;7.88;100.00
57900;BME280;60605;53.716;19.940;2023-03-13T21:55:50;98396.42;;;7.91;100.00
57900;BME280;60605;53.716;19.940;2023-03-13T22:00:57;98415.25;;;7.92;100.00
57900;BME280;60605;53.716;19.940;2023-03-13T22:06:00;98418.52;;;7.98;100.00
57900;BME280;60605;53.716;19.940;2023-03-13T22:11:02;98407.48;;;8.07;100.00
57900;BME280;60605;53.716;19.940;2023-03-13T22:16:04;98402.88;;;8.15;100.00
57900;BME280;60605;53.716;19.940;2023-03-13T22:21:06;98391.57;;;8.22;100.00
57900;BME280;60605;53.716;19.940;2023-03-13T22:26:11;98379.55;;;8.32;100.00
57900;BME280;60605;53.716;19.940;2023-03-13T22:31:12;98379.14;;;8.41;100.00
57900;BME280;60605;53.716;19.940;2023-03-13T22:36:14;98390.88;;;8.47;100.00
57900;BME280;60605;53.716;19.940;2023-03-13T22:41:16;98387.20;;;8.51;100.00
57900;BME280;60605;53.716;19.940;2023-03-13T22:46:18;98373.98;;;8.55;100.00
57900;BME280;60605;53.716;19.940;2023-03-13T22:51:20;98349.40;;;8.63;100.00
57900;BME280;60605;53.716;19.940;2023-03-13T22:56:22;98324.23;;;8.70;100.00
57900;BME280;60605;53.716;19.940;2023-03-13T23:01:27;98319.77;;;8.80;100.00
57900;BME280;60605;53.716;19.940;2023-03-13T23:06:30;98300.20;;;8.88;100.00
57900;BME280;60605;53.716;19.940;2023-03-13T23:11:32;98284.45;;;8.91;100.00
57900;BME280;60605;53.716;19.940;2023-03-13T23:16:35;98270.75;;;8.93;100.00
57900;BME280;60605;53.716;19.940;2023-03-13T23:21:36;98270.46;;;8.98;100.00
57900;BME280;60605;53.716;19.940;2023-03-13T23:26:39;98269.16;;;9.04;100.00
57900;BME280;60605;53.716;19.940;2023-03-13T23:31:41;98266.97;;;9.11;100.00
57900;BME280;60605;53.716;19.940;2023-03-13T23:36:42;98275.08;;;9.20;100.00
57900;BME280;60605;53.716;19.940;2023-03-13T23:41:44;98279.52;;;9.26;100.00
57900;BME280;60605;53.716;19.940;2023-03-13T23:46:46;98279.77;;;9.32;100.00
57900;BME280;60605;53.716;19.940;2023-03-13T23:51:48;98277.84;;;9.37;100.00
57900;BME280;60605;53.716;19.940;2023-03-13T23:56:50;98279.53;;;9.38;100.00
